createdAt,value
2018-05-24T00:01:28.199Z,15.39
2018-05-24T00:03:56.603Z,15.41
2018-05-24T00:06:25.243Z,15.54
2018-05-24T00:08:53.816Z,15.60
2018-05-24T00:11:22.807Z,15.61
2018-05-24T00:13:51.499Z,15.68
2018-05-24T00:16:20.293Z,15.53
2018-05-24T00:18:48.683Z,15.46
2018-05-24T00:21:17.198Z,15.49
2018-05-24T00:23:45.859Z,15.49
2018-05-24T00:26:14.718Z,15.43
2018-05-24T00:28:43.199Z,15.29
2018-05-24T00:31:11.605Z,15.28
2018-05-24T00:33:39.983Z,15.26
2018-05-24T00:36:08.895Z,15.13
2018-05-24T00:38:37.275Z,14.98
2018-05-24T00:41:05.686Z,14.86
2018-05-24T00:43:34.066Z,14.87
2018-05-24T00:46:02.478Z,14.82
2018-05-24T00:48:30.862Z,14.98
2018-05-24T00:50:59.276Z,15.16
2018-05-24T00:53:27.666Z,15.12
2018-05-24T00:55:56.067Z,15.07
2018-05-24T00:58:24.451Z,15.14
2018-05-24T01:00:52.867Z,15.11
2018-05-24T01:03:21.255Z,15.05
2018-05-24T01:05:49.672Z,14.94
2018-05-24T01:08:18.059Z,14.90
2018-05-24T01:10:46.462Z,14.91
2018-05-24T01:13:14.851Z,15.03
2018-05-24T01:15:43.256Z,14.95
2018-05-24T01:18:11.636Z,14.98
2018-05-24T01:20:40.039Z,15.11
2018-05-24T01:23:08.431Z,15.02
2018-05-24T01:25:36.839Z,14.92
2018-05-24T01:28:05.219Z,14.78
2018-05-24T01:30:33.629Z,14.63
2018-05-24T01:33:02.025Z,14.54
2018-05-24T01:35:30.431Z,14.42
2018-05-24T01:37:59.047Z,14.23
2018-05-24T01:40:27.448Z,14.01
2018-05-24T01:42:55.835Z,13.93
2018-05-24T01:45:24.243Z,13.78
2018-05-24T01:47:52.634Z,13.67
2018-05-24T01:50:21.039Z,13.76
2018-05-24T01:52:49.419Z,13.65
2018-05-24T01:55:17.851Z,13.48
2018-05-24T01:57:46.447Z,13.48
2018-05-24T02:00:14.989Z,13.50
2018-05-24T02:02:43.852Z,13.47
2018-05-24T02:05:12.773Z,13.49
2018-05-24T02:07:41.584Z,13.47
2018-05-24T02:10:10.351Z,13.55
2018-05-24T02:12:38.931Z,13.77
2018-05-24T02:15:07.340Z,13.85
2018-05-24T02:17:36.139Z,14.21
2018-05-24T02:20:04.555Z,14.39
2018-05-24T02:22:33.037Z,14.54
2018-05-24T02:25:01.446Z,14.48
2018-05-24T02:27:30.615Z,14.51
2018-05-24T02:29:59.019Z,14.59
2018-05-24T02:32:28.173Z,14.53
2018-05-24T02:34:56.588Z,14.73
2018-05-24T02:37:25.906Z,14.76
2018-05-24T02:39:55.652Z,14.73
2018-05-24T02:42:24.611Z,14.75
2018-05-24T02:44:53.471Z,14.81
2018-05-24T02:47:21.879Z,14.97
2018-05-24T02:49:50.743Z,15.02
2018-05-24T02:52:19.248Z,15.14
2018-05-24T02:54:47.704Z,15.18
2018-05-24T02:57:16.213Z,15.20
2018-05-24T02:59:45.072Z,15.25
2018-05-24T03:02:13.962Z,15.36
2018-05-24T03:04:42.594Z,15.47
2018-05-24T03:07:11.001Z,15.49
2018-05-24T03:09:39.641Z,15.47
2018-05-24T03:12:08.191Z,15.50
2018-05-24T03:14:36.571Z,15.52
2018-05-24T03:17:04.985Z,15.57
2018-05-24T03:19:33.729Z,15.56
2018-05-24T03:22:02.136Z,15.60
2018-05-24T03:24:30.514Z,15.59
2018-05-24T03:26:58.919Z,15.63
2018-05-24T03:29:28.391Z,15.63
2018-05-24T03:31:57.163Z,15.74
2018-05-24T03:34:25.539Z,15.72
2018-05-24T03:36:53.971Z,15.77
2018-05-24T03:39:23.078Z,15.78
2018-05-24T03:41:51.484Z,15.84
2018-05-24T03:44:20.682Z,15.77
2018-05-24T03:46:49.326Z,15.80
2018-05-24T03:49:18.579Z,15.77
2018-05-24T03:51:48.331Z,15.73
2018-05-24T03:54:16.960Z,15.71
2018-05-24T03:56:45.917Z,15.63
2018-05-24T04:02:46.892Z,15.47
2018-05-24T04:05:16.141Z,15.49
2018-05-24T04:07:44.936Z,15.36
2018-05-24T04:10:13.440Z,15.31
2018-05-24T04:12:41.847Z,15.26
2018-05-24T04:15:10.965Z,15.22
2018-05-24T04:17:39.814Z,15.14
2018-05-24T04:20:08.747Z,15.18
2018-05-24T04:22:37.299Z,15.12
2018-05-24T04:25:06.092Z,15.23
2018-05-24T04:27:34.782Z,15.23
2018-05-24T04:30:03.173Z,15.24
2018-05-24T04:32:31.591Z,15.25
2018-05-24T04:35:00.724Z,15.27
2018-05-24T04:37:29.211Z,15.24
2018-05-24T04:39:57.598Z,15.32
2018-05-24T04:42:26.175Z,15.32
2018-05-24T04:44:55.167Z,15.30
2018-05-24T04:47:23.571Z,15.38
2018-05-24T04:49:51.947Z,15.53
2018-05-24T04:52:20.343Z,15.53
2018-05-24T04:54:48.716Z,15.57
2018-05-24T04:57:17.120Z,15.62
2018-05-24T04:59:46.367Z,15.63
2018-05-24T05:02:15.428Z,15.57
2018-05-24T05:04:44.547Z,15.72
2018-05-24T05:07:12.990Z,15.65
2018-05-24T05:09:42.195Z,15.79
2018-05-24T05:12:11.348Z,15.84
2018-05-24T05:14:39.738Z,15.85
2018-05-24T05:17:08.523Z,15.92
2018-05-24T05:19:36.971Z,16.03
2018-05-24T05:22:05.475Z,16.17
2018-05-24T05:24:34.117Z,16.24
2018-05-24T05:27:02.980Z,16.42
2018-05-24T05:29:31.347Z,16.46
2018-05-24T05:31:59.804Z,16.39
2018-05-24T05:34:28.451Z,16.73
2018-05-24T05:36:57.194Z,16.83
2018-05-24T05:39:26.047Z,16.63
2018-05-24T05:41:54.448Z,16.39
2018-05-24T05:44:22.818Z,16.48
2018-05-24T05:46:51.210Z,16.31
2018-05-24T05:49:19.582Z,16.39
2018-05-24T05:51:47.977Z,16.46
2018-05-24T05:54:16.346Z,16.51
2018-05-24T05:56:44.751Z,16.44
2018-05-24T05:59:13.135Z,16.66
2018-05-24T06:01:41.704Z,17.26
2018-05-24T06:04:10.068Z,17.90
2018-05-24T06:06:38.652Z,18.92
2018-05-24T06:09:07.895Z,19.47
2018-05-24T06:11:36.282Z,19.85
2018-05-24T06:14:04.662Z,19.30
2018-05-24T06:16:33.054Z,19.03
2018-05-24T06:19:01.427Z,19.53
2018-05-24T06:21:29.841Z,20.12
2018-05-24T06:23:58.199Z,20.33
2018-05-24T06:26:26.605Z,21.20
2018-05-24T06:28:54.962Z,21.36
2018-05-24T06:31:23.355Z,21.20
2018-05-24T06:33:51.732Z,20.42
2018-05-24T06:36:20.119Z,20.64
2018-05-24T06:38:48.482Z,21.47
2018-05-24T06:41:16.871Z,22.42
2018-05-24T06:43:45.243Z,22.50
2018-05-24T06:46:13.655Z,22.44
2018-05-24T06:48:42.019Z,22.84
2018-05-24T06:51:10.396Z,23.31
2018-05-24T06:53:38.812Z,23.59
2018-05-24T06:56:07.268Z,25.06
2018-05-24T06:58:35.562Z,25.35
2018-05-24T07:01:03.940Z,24.17
2018-05-24T07:03:32.694Z,25.24
2018-05-24T07:06:01.672Z,25.86
2018-05-24T07:08:30.183Z,26.07
2018-05-24T07:10:59.483Z,26.19
2018-05-24T07:13:28.174Z,26.14
2018-05-24T07:15:57.279Z,26.99
2018-05-24T07:18:25.873Z,26.04
2018-05-24T07:20:54.520Z,25.18
2018-05-24T07:23:23.124Z,26.19
2018-05-24T07:25:51.599Z,27.34
2018-05-24T07:28:20.023Z,26.04
2018-05-24T07:30:48.922Z,25.33
2018-05-24T07:33:17.562Z,23.51
2018-05-24T07:35:45.976Z,22.57
2018-05-24T07:38:14.527Z,22.21
2018-05-24T07:40:42.903Z,21.70
2018-05-24T07:43:11.998Z,21.68
2018-05-24T07:45:40.503Z,21.24
2018-05-24T07:48:08.975Z,21.21
2018-05-24T07:50:37.356Z,20.98
2018-05-24T07:53:05.939Z,20.73
2018-05-24T07:55:34.311Z,20.77
2018-05-24T07:58:02.893Z,21.53
2018-05-24T08:00:31.263Z,21.23
2018-05-24T08:02:59.949Z,21.25
2018-05-24T08:05:28.647Z,21.39
2018-05-24T08:07:57.338Z,21.76
2018-05-24T08:10:26.227Z,22.11
2018-05-24T08:12:55.172Z,22.37
2018-05-24T08:15:24.203Z,22.63
2018-05-24T08:17:52.595Z,23.04
2018-05-24T08:20:21.075Z,23.99
2018-05-24T08:22:49.760Z,24.93
2018-05-24T08:25:18.763Z,24.61
2018-05-24T08:27:47.239Z,24.44
2018-05-24T08:30:16.435Z,23.62
2018-05-24T08:32:44.836Z,23.30
2018-05-24T08:35:13.403Z,22.16
2018-05-24T08:37:42.839Z,22.15
2018-05-24T08:40:11.691Z,22.37
2018-05-24T08:42:40.690Z,23.14
2018-05-24T08:45:09.527Z,23.72
2018-05-24T08:47:38.756Z,24.87
2018-05-24T08:50:07.499Z,25.11
2018-05-24T08:52:36.420Z,25.15
2018-05-24T08:55:04.970Z,24.50
2018-05-24T08:57:33.651Z,24.51
2018-05-24T09:00:02.107Z,24.99
2018-05-24T09:02:31.519Z,24.63
2018-05-24T09:05:00.163Z,24.33
2018-05-24T09:07:28.911Z,25.21
2018-05-24T09:09:57.938Z,26.49
2018-05-24T09:12:26.338Z,26.45
2018-05-24T09:14:55.034Z,26.52
2018-05-24T09:17:24.405Z,25.61
2018-05-24T09:19:53.033Z,25.19
2018-05-24T09:22:21.770Z,24.47
2018-05-24T09:24:50.615Z,24.48
2018-05-24T09:27:19.508Z,25.19
2018-05-24T09:29:48.271Z,25.26
2018-05-24T09:32:16.991Z,24.69
2018-05-24T09:34:45.396Z,25.55
2018-05-24T09:37:13.807Z,25.07
2018-05-24T09:39:42.201Z,25.05
2018-05-24T09:42:10.634Z,25.00
2018-05-24T09:44:38.991Z,24.10
2018-05-24T09:47:07.403Z,22.74
2018-05-24T09:49:35.797Z,22.16
2018-05-24T09:52:04.203Z,21.86
2018-05-24T09:54:32.579Z,21.61
2018-05-24T09:57:00.976Z,21.26
2018-05-24T09:59:29.362Z,21.33
2018-05-24T10:01:57.756Z,21.06
2018-05-24T10:04:26.168Z,21.22
2018-05-24T10:06:55.235Z,21.49
2018-05-24T10:09:23.688Z,21.06
2018-05-24T10:11:52.084Z,21.00
2018-05-24T10:14:21.331Z,21.42
2018-05-24T10:16:49.723Z,21.78
2018-05-24T10:19:18.875Z,22.02
2018-05-24T10:21:47.448Z,22.28
2018-05-24T10:24:16.411Z,21.93
2018-05-24T10:26:44.803Z,21.74
2018-05-24T10:29:14.178Z,21.61
2018-05-24T10:31:42.907Z,21.39
2018-05-24T10:34:11.604Z,21.00
2018-05-24T10:36:40.012Z,20.74
2018-05-24T10:39:09.119Z,20.57
2018-05-24T10:41:37.971Z,19.94
2018-05-24T10:44:06.375Z,19.88
2018-05-24T10:46:34.766Z,19.81
2018-05-24T10:49:03.176Z,19.50
2018-05-24T10:51:32.659Z,19.46
2018-05-24T10:54:01.080Z,19.29
2018-05-24T10:56:30.212Z,19.08
2018-05-24T10:58:58.887Z,19.07
2018-05-24T11:01:27.680Z,19.22
2018-05-24T11:03:56.347Z,19.43
2018-05-24T11:06:25.111Z,19.43
2018-05-24T11:08:53.925Z,19.45
2018-05-24T11:11:22.315Z,19.61
2018-05-24T11:13:50.715Z,19.68
2018-05-24T11:16:19.107Z,19.74
2018-05-24T11:18:47.516Z,19.78
2018-05-24T11:21:15.907Z,19.99
2018-05-24T11:23:44.310Z,19.99
2018-05-24T11:26:12.701Z,19.98
2018-05-24T11:28:41.107Z,20.30
2018-05-24T11:31:09.499Z,20.44
2018-05-24T11:33:37.912Z,20.94
2018-05-24T11:36:06.303Z,21.67
2018-05-24T11:38:34.706Z,23.18
2018-05-24T11:41:03.420Z,25.75
2018-05-24T11:43:31.850Z,27.86
2018-05-24T11:46:01.121Z,29.32
2018-05-24T11:48:29.646Z,27.53
2018-05-24T11:50:58.037Z,26.48
2018-05-24T11:53:26.495Z,25.74
2018-05-24T11:55:56.675Z,26.67
2018-05-24T11:58:25.471Z,28.12
2018-05-24T12:00:54.092Z,28.73
2018-05-24T12:03:22.508Z,28.95
2018-05-24T12:05:51.775Z,28.57
2018-05-24T12:08:20.555Z,28.20
2018-05-24T12:10:49.360Z,26.65
2018-05-24T12:13:18.027Z,25.24
2018-05-24T12:15:47.292Z,24.85
2018-05-24T12:18:16.186Z,25.09
2018-05-24T12:20:45.143Z,25.26
2018-05-24T12:23:13.997Z,25.76
2018-05-24T12:25:42.911Z,25.28
2018-05-24T12:28:11.751Z,25.40
2018-05-24T12:30:40.318Z,25.32
2018-05-24T12:33:09.466Z,24.81
2018-05-24T12:35:38.364Z,24.59
2018-05-24T12:38:07.187Z,24.08
2018-05-24T12:40:35.979Z,23.91
2018-05-24T12:43:04.424Z,24.31
2018-05-24T12:45:33.403Z,24.59
2018-05-24T12:48:02.408Z,24.78
2018-05-24T12:50:31.455Z,24.67
2018-05-24T12:52:59.891Z,24.28
2018-05-24T12:55:29.151Z,24.62
2018-05-24T12:57:58.159Z,24.85
2018-05-24T13:00:26.535Z,24.53
2018-05-24T13:02:55.156Z,24.38
2018-05-24T13:05:24.818Z,25.02
2018-05-24T13:07:53.779Z,25.78
2018-05-24T13:10:22.618Z,27.26
2018-05-24T13:12:51.323Z,26.32
2018-05-24T13:15:20.267Z,26.26
2018-05-24T13:17:48.693Z,26.75
2018-05-24T13:20:17.302Z,28.84
2018-05-24T13:22:46.270Z,29.09
2018-05-24T13:25:15.523Z,29.30
2018-05-24T13:27:44.495Z,29.41
2018-05-24T13:30:13.268Z,28.58
2018-05-24T13:32:42.743Z,28.55
2018-05-24T13:35:11.131Z,28.26
2018-05-24T13:37:39.725Z,28.56
2018-05-24T13:40:08.135Z,30.63
2018-05-24T13:42:36.514Z,30.12
2018-05-24T13:45:04.934Z,29.90
2018-05-24T13:47:33.309Z,31.78
2018-05-24T13:50:01.729Z,31.26
2018-05-24T13:52:30.116Z,29.78
2018-05-24T13:54:58.527Z,29.05
2018-05-24T13:57:38.800Z,30.18
2018-05-24T14:00:07.208Z,28.85
2018-05-24T14:02:35.595Z,26.68
2018-05-24T14:05:04.008Z,25.84
2018-05-24T14:07:32.394Z,25.45
2018-05-24T14:10:01.246Z,24.87
2018-05-24T14:12:29.728Z,24.06
2018-05-24T14:14:58.152Z,23.60
2018-05-24T14:17:26.564Z,23.85
2018-05-24T14:19:55.184Z,23.99
2018-05-24T14:22:24.299Z,23.82
2018-05-24T14:24:53.166Z,23.53
2018-05-24T14:27:21.934Z,23.48
2018-05-24T14:29:50.343Z,23.75
2018-05-24T14:32:20.018Z,23.67
2018-05-24T14:34:48.799Z,23.35
2018-05-24T14:37:17.186Z,23.51
2018-05-24T14:39:46.111Z,23.71
2018-05-24T14:42:14.511Z,23.46
2018-05-24T14:44:42.923Z,23.24
2018-05-24T14:47:11.314Z,22.89
2018-05-24T14:49:39.714Z,22.93
2018-05-24T14:52:08.107Z,22.85
2018-05-24T14:54:36.523Z,23.01
2018-05-24T14:57:04.912Z,23.21
2018-05-24T14:59:33.323Z,23.02
2018-05-24T15:02:01.705Z,22.98
2018-05-24T15:04:30.115Z,22.99
2018-05-24T15:06:58.511Z,22.57
2018-05-24T15:09:27.371Z,22.46
2018-05-24T15:11:55.763Z,22.24
2018-05-24T15:14:24.347Z,22.09
2018-05-24T15:16:53.166Z,22.23
2018-05-24T15:19:21.952Z,22.09
2018-05-24T15:21:50.971Z,22.07
2018-05-24T15:24:20.228Z,22.11
2018-05-24T15:26:48.634Z,21.95
2018-05-24T15:29:17.155Z,21.57
2018-05-24T15:31:45.871Z,21.17
2018-05-24T15:34:14.279Z,20.99
2018-05-24T15:36:43.474Z,20.91
2018-05-24T15:39:12.632Z,20.77
2018-05-24T15:41:41.542Z,21.18
2018-05-24T15:44:10.380Z,21.27
2018-05-24T15:46:38.758Z,21.24
2018-05-24T15:49:07.159Z,21.39
2018-05-24T15:51:35.539Z,21.21
2018-05-24T15:54:03.948Z,21.51
2018-05-24T15:56:32.341Z,21.47
2018-05-24T15:59:00.753Z,21.40
2018-05-24T16:01:29.138Z,21.49
2018-05-24T16:03:57.565Z,21.22
2018-05-24T16:06:25.971Z,21.41
2018-05-24T16:08:54.379Z,21.39
2018-05-24T16:11:23.003Z,21.38
2018-05-24T16:13:51.467Z,21.20
2018-05-24T16:16:19.820Z,21.31
2018-05-24T16:18:48.218Z,21.22
2018-05-24T16:21:16.603Z,20.65
2018-05-24T16:23:44.996Z,20.77
2018-05-24T16:26:13.370Z,20.83
2018-05-24T16:28:41.766Z,20.94
2018-05-24T16:31:10.139Z,21.07
2018-05-24T16:33:38.535Z,20.97
2018-05-24T16:36:06.914Z,21.21
2018-05-24T16:38:35.283Z,20.81
2018-05-24T16:41:03.675Z,21.02
2018-05-24T16:43:32.083Z,21.05
2018-05-24T16:46:00.471Z,20.79
2018-05-24T16:48:28.856Z,20.70
2018-05-24T16:50:57.258Z,20.53
2018-05-24T16:53:25.634Z,20.62
2018-05-24T16:55:54.038Z,20.32
2018-05-24T16:58:22.412Z,20.24
2018-05-24T17:00:50.809Z,20.18
2018-05-24T17:03:19.180Z,20.19
2018-05-24T17:05:47.574Z,20.15
2018-05-24T17:08:15.961Z,20.22
2018-05-24T17:10:44.397Z,20.20
2018-05-24T17:13:13.087Z,20.16
2018-05-24T17:15:41.475Z,20.22
2018-05-24T17:18:09.852Z,20.07
2018-05-24T17:20:38.264Z,20.15
2018-05-24T17:23:06.927Z,20.06
2018-05-24T17:25:35.919Z,20.00
2018-05-24T17:28:05.335Z,20.04
2018-05-24T17:30:33.722Z,20.00
2018-05-24T17:33:02.269Z,20.15
2018-05-24T17:35:30.874Z,20.15
2018-05-24T17:37:59.582Z,20.21
2018-05-24T17:40:28.347Z,20.09
2018-05-24T17:42:56.723Z,20.11
2018-05-24T17:45:25.124Z,20.07
2018-05-24T17:47:53.507Z,19.95
2018-05-24T17:50:21.920Z,19.96
2018-05-24T17:52:50.298Z,19.82
2018-05-24T17:55:18.695Z,19.79
2018-05-24T17:57:47.074Z,19.81
2018-05-24T18:00:15.608Z,19.76
2018-05-24T18:02:43.998Z,19.76
2018-05-24T18:05:12.420Z,19.67
2018-05-24T18:07:40.799Z,19.58
2018-05-24T18:10:10.131Z,19.47
2018-05-24T18:12:39.028Z,19.50
2018-05-24T18:15:07.435Z,19.50
2018-05-24T18:17:36.079Z,19.42
2018-05-24T18:20:05.080Z,19.34
2018-05-24T18:22:34.548Z,19.12
2018-05-24T18:25:03.084Z,19.04
2018-05-24T18:27:31.556Z,18.96
2018-05-24T18:30:00.275Z,18.86
2018-05-24T18:32:29.507Z,18.81
2018-05-24T18:34:57.919Z,18.80
2018-05-24T18:37:26.309Z,18.85
2018-05-24T18:39:54.720Z,18.76
2018-05-24T18:42:23.110Z,18.77
2018-05-24T18:44:51.513Z,18.66
2018-05-24T18:47:19.883Z,18.67
2018-05-24T18:49:48.291Z,18.61
2018-05-24T18:52:16.658Z,18.50
2018-05-24T18:54:45.059Z,18.45
2018-05-24T18:57:13.440Z,18.43
2018-05-24T18:59:41.842Z,18.28
2018-05-24T19:02:10.370Z,18.35
2018-05-24T19:04:38.836Z,18.28
2018-05-24T19:07:07.155Z,18.17
2018-05-24T19:09:35.547Z,18.00
2018-05-24T19:12:03.931Z,17.94
2018-05-24T19:14:32.711Z,17.81
2018-05-24T19:17:01.743Z,17.70
2018-05-24T19:19:30.194Z,17.72
2018-05-24T19:21:59.511Z,17.62
2018-05-24T19:24:28.500Z,17.58
2018-05-24T19:26:57.139Z,17.61
2018-05-24T19:29:25.680Z,17.51
2018-05-24T19:31:55.023Z,17.53
2018-05-24T19:34:23.947Z,17.52
2018-05-24T19:36:52.884Z,17.48
2018-05-24T19:39:21.939Z,17.35
2018-05-24T19:41:51.008Z,17.36
2018-05-24T19:44:19.947Z,17.34
2018-05-24T19:46:48.872Z,17.40
2018-05-24T19:49:17.754Z,17.29
2018-05-24T19:51:46.672Z,17.30
2018-05-24T19:54:15.424Z,17.25
2018-05-24T19:56:44.059Z,17.23
2018-05-24T19:59:12.772Z,17.13
2018-05-24T20:01:41.606Z,17.09
2018-05-24T20:04:10.306Z,17.02
2018-05-24T20:06:39.466Z,17.07
2018-05-24T20:09:09.205Z,17.05
2018-05-24T20:11:37.837Z,17.00
2018-05-24T20:14:07.290Z,17.03
2018-05-24T20:16:35.707Z,17.01
2018-05-24T20:19:04.091Z,17.02
2018-05-24T20:21:32.583Z,17.04
2018-05-24T20:24:00.976Z,17.02
2018-05-24T20:26:29.392Z,16.97
2018-05-24T20:28:57.779Z,16.86
2018-05-24T20:31:26.187Z,16.80
2018-05-24T20:33:54.627Z,16.75
2018-05-24T20:36:23.007Z,16.70
2018-05-24T20:38:51.388Z,16.67
2018-05-24T20:41:19.791Z,16.63
2018-05-24T20:43:48.176Z,16.56
2018-05-24T20:46:16.583Z,16.48
2018-05-24T20:48:44.960Z,16.38
2018-05-24T20:51:13.371Z,16.35
2018-05-24T20:53:41.769Z,16.40
2018-05-24T20:56:10.174Z,16.30
2018-05-24T20:58:38.559Z,16.26
2018-05-24T21:01:06.967Z,16.17
2018-05-24T21:03:35.355Z,16.14
2018-05-24T21:06:03.763Z,16.10
2018-05-24T21:08:32.155Z,16.13
2018-05-24T21:11:00.563Z,16.06
2018-05-24T21:13:28.951Z,16.08
2018-05-24T21:15:57.365Z,16.06
2018-05-24T21:18:26.528Z,16.02
2018-05-24T21:20:55.485Z,16.00
2018-05-24T21:23:23.998Z,15.97
2018-05-24T21:25:52.974Z,15.95
2018-05-24T21:28:21.467Z,15.98
2018-05-24T21:30:49.866Z,15.97
2018-05-24T21:33:18.267Z,15.95
2018-05-24T21:35:46.683Z,15.98
2018-05-24T21:38:15.064Z,15.93
2018-05-24T21:40:43.475Z,15.89
2018-05-24T21:43:11.864Z,15.86
2018-05-24T21:45:40.275Z,15.80
2018-05-24T21:48:08.667Z,15.71
2018-05-24T21:50:37.079Z,15.68
2018-05-24T21:53:05.470Z,15.60
2018-05-24T21:55:33.870Z,15.66
2018-05-24T21:58:02.261Z,15.60
2018-05-24T22:00:30.663Z,15.49
2018-05-24T22:02:59.062Z,15.51
2018-05-24T22:05:27.481Z,15.44
2018-05-24T22:07:55.867Z,15.48
2018-05-24T22:10:24.285Z,15.43
2018-05-24T22:12:52.681Z,15.43
2018-05-24T22:15:21.078Z,15.41
2018-05-24T22:17:49.706Z,15.42
2018-05-24T22:20:18.390Z,15.43
2018-05-24T22:22:46.935Z,15.51
2018-05-24T22:25:15.364Z,15.66
2018-05-24T22:27:44.968Z,15.57
2018-05-24T22:30:13.999Z,15.50
2018-05-24T22:32:43.170Z,15.46
2018-05-24T22:35:12.563Z,15.36
2018-05-24T22:37:41.055Z,15.52
2018-05-24T22:40:09.513Z,15.44
2018-05-24T22:42:37.987Z,15.44
2018-05-24T22:45:06.467Z,15.41
2018-05-24T22:47:35.423Z,15.32
2018-05-24T22:50:04.390Z,15.26
2018-05-24T22:52:32.808Z,15.19
2018-05-24T22:55:01.551Z,15.22
2018-05-24T22:57:30.043Z,15.32
2018-05-24T22:59:58.427Z,15.29
2018-05-24T23:02:27.116Z,15.37
2018-05-24T23:04:55.784Z,15.45
2018-05-24T23:07:24.143Z,15.47
2018-05-24T23:09:52.815Z,15.48
2018-05-24T23:12:21.298Z,15.45
2018-05-24T23:14:49.690Z,15.43
2018-05-24T23:17:18.175Z,15.38
2018-05-24T23:19:47.115Z,15.35
2018-05-24T23:22:27.308Z,15.28
2018-05-24T23:24:56.508Z,15.16
2018-05-24T23:27:25.292Z,15.10
2018-05-24T23:29:54.323Z,15.00
2018-05-24T23:32:23.019Z,15.06
2018-05-24T23:34:51.372Z,15.09
2018-05-24T23:37:20.102Z,14.94
2018-05-24T23:39:48.491Z,14.79
2018-05-24T23:42:16.912Z,14.65
2018-05-24T23:44:46.164Z,14.57
2018-05-24T23:47:14.894Z,14.46
2018-05-24T23:49:44.132Z,14.45
2018-05-24T23:52:12.899Z,14.46
2018-05-24T23:54:41.899Z,14.45
2018-05-24T23:57:10.376Z,14.30
2018-05-24T23:59:38.768Z,14.23
